BAW34 EGLL-ENGM
Flight info
| Callsign | BAW34 |
|---|---|
| Flight time | 2h 0m |
| Altitude | 41000 |
| Route | BPK6J BPK Q295 MATCH P144 SAMHO DCT LARGA DCT INBOB M604 DANKO DCT PIPEX DCT ULMUG DCT RIPAM RIPAM3L |
| Aircraft | B772/H-SDE2E3FGHIJ5LORVWXY/LB1D1 |
Departure
| Time | 2026-05-05 21:34 |
|---|---|
| Airport | London Heathrow Airport (EGLL) |
Arrival
| Time | 2026-05-05 23:35 |
|---|---|
| Airport | Oslo-Gardermoen International Airport (ENGM) |
| Time | Latitude | Longitude | Altitude | Speed | Heading |
|---|---|---|---|---|---|
| 2026-05-05 21:16 | 51.47393 | -0.46244 | 90 ft | 0 kts | 236° |
| 2026-05-05 21:17 | 51.47402 | -0.46224 | 94 ft | 4 kts | 236° |
| 2026-05-05 21:18 | 51.47417 | -0.46189 | 90 ft | 4 kts | 235° |
| 2026-05-05 21:18 | 51.47429 | -0.46158 | 93 ft | 4 kts | 262° |
| 2026-05-05 21:18 | 51.47423 | -0.46126 | 92 ft | 4 kts | 326° |
| 2026-05-05 21:18 | 51.47407 | -0.46110 | 90 ft | 0 kts | 325° |
| 2026-05-05 21:21 | 51.47409 | -0.46112 | 90 ft | 2 kts | 325° |
| 2026-05-05 21:21 | 51.47423 | -0.46128 | 94 ft | 3 kts | 325° |
| 2026-05-05 21:22 | 51.47438 | -0.46144 | 91 ft | 3 kts | 326° |
| 2026-05-05 21:22 | 51.47454 | -0.46162 | 94 ft | 3 kts | 326° |
| 2026-05-05 21:22 | 51.47481 | -0.46191 | 93 ft | 6 kts | 326° |
| 2026-05-05 21:22 | 51.47511 | -0.46244 | 94 ft | 7 kts | 289° |
| 2026-05-05 21:23 | 51.47516 | -0.46336 | 90 ft | 9 kts | 270° |
| 2026-05-05 21:23 | 51.47516 | -0.46451 | 90 ft | 11 kts | 269° |
| 2026-05-05 21:23 | 51.47514 | -0.46588 | 91 ft | 13 kts | 269° |
| 2026-05-05 21:23 | 51.47502 | -0.46742 | 93 ft | 15 kts | 254° |
| 2026-05-05 21:24 | 51.47494 | -0.46914 | 92 ft | 16 kts | 269° |
| 2026-05-05 21:24 | 51.47492 | -0.47101 | 91 ft | 18 kts | 270° |
| 2026-05-05 21:24 | 51.47492 | -0.47308 | 91 ft | 19 kts | 270° |
| 2026-05-05 21:24 | 51.47492 | -0.47530 | 91 ft | 21 kts | 269° |
| 2026-05-05 21:25 | 51.47491 | -0.47767 | 91 ft | 22 kts | 269° |
| 2026-05-05 21:25 | 51.47489 | -0.48017 | 93 ft | 23 kts | 269° |
| 2026-05-05 21:25 | 51.47488 | -0.48269 | 93 ft | 23 kts | 270° |
| 2026-05-05 21:25 | 51.47469 | -0.48357 | 95 ft | 7 kts | 197° |
| 2026-05-05 21:26 | 51.47412 | -0.48359 | 90 ft | 11 kts | 180° |
| 2026-05-05 21:26 | 51.47289 | -0.48361 | 90 ft | 24 kts | 180° |
| 2026-05-05 21:26 | 51.47122 | -0.48357 | 94 ft | 20 kts | 180° |
| 2026-05-05 21:26 | 51.46988 | -0.48357 | 93 ft | 18 kts | 180° |
| 2026-05-05 21:27 | 51.46872 | -0.48356 | 93 ft | 16 kts | 178° |
| 2026-05-05 21:27 | 51.46771 | -0.48361 | 92 ft | 12 kts | 201° |
| 2026-05-05 21:27 | 51.46743 | -0.48479 | 91 ft | 12 kts | 268° |
| 2026-05-05 21:27 | 51.46742 | -0.48539 | 91 ft | 0 kts | 269° |
| 2026-05-05 21:28 | 51.46742 | -0.48542 | 91 ft | 1 kts | 269° |
| 2026-05-05 21:28 | 51.46742 | -0.48554 | 91 ft | 1 kts | 269° |
| 2026-05-05 21:28 | 51.46742 | -0.48568 | 91 ft | 3 kts | 269° |
| 2026-05-05 21:29 | 51.46742 | -0.48619 | 91 ft | 5 kts | 269° |
| 2026-05-05 21:29 | 51.46741 | -0.48675 | 91 ft | 5 kts | 269° |
| 2026-05-05 21:29 | 51.46732 | -0.48726 | 92 ft | 5 kts | 236° |
| 2026-05-05 21:29 | 51.46706 | -0.48748 | 93 ft | 4 kts | 192° |
| 2026-05-05 21:30 | 51.46677 | -0.48749 | 93 ft | 4 kts | 181° |
| 2026-05-05 21:30 | 51.46649 | -0.48750 | 93 ft | 4 kts | 182° |
| 2026-05-05 21:30 | 51.46626 | -0.48756 | 94 ft | 0 kts | 194° |
| 2026-05-05 21:31 | 51.46617 | -0.48760 | 94 ft | 3 kts | 195° |
| 2026-05-05 21:31 | 51.46600 | -0.48768 | 94 ft | 0 kts | 198° |
| 2026-05-05 21:32 | 51.46574 | -0.48782 | 93 ft | 11 kts | 198° |
| 2026-05-05 21:32 | 51.46484 | -0.48716 | 95 ft | 19 kts | 115° |
| 2026-05-05 21:32 | 51.46477 | -0.48631 | 93 ft | 0 kts | 89° |
| 2026-05-05 21:33 | 51.46477 | -0.48630 | 93 ft | 2 kts | 89° |
| 2026-05-05 21:33 | 51.46478 | -0.48328 | 92 ft | 62 kts | 90° |
| 2026-05-05 21:34 | 51.46481 | -0.47217 | 94 ft | 135 kts | 88° |
| 2026-05-05 21:34 | 51.46479 | -0.45601 | 572 ft | 149 kts | 92° |
| 2026-05-05 21:34 | 51.46400 | -0.44314 | 1166 ft | 150 kts | 96° |
| 2026-05-05 21:34 | 51.46317 | -0.43243 | 1759 ft | 150 kts | 96° |
| 2026-05-05 21:35 | 51.46263 | -0.41712 | 2148 ft | 162 kts | 77° |
| 2026-05-05 21:35 | 51.46374 | -0.41143 | 2165 ft | 170 kts | 61° |
| 2026-05-05 21:35 | 51.47235 | -0.39797 | 2536 ft | 179 kts | 41° |
| 2026-05-05 21:35 | 51.48091 | -0.38195 | 2799 ft | 201 kts | 54° |
| 2026-05-05 21:36 | 51.48989 | -0.36291 | 3016 ft | 226 kts | 51° |
| 2026-05-05 21:36 | 51.50021 | -0.34254 | 3308 ft | 250 kts | 50° |
| 2026-05-05 21:36 | 51.51168 | -0.32084 | 4062 ft | 254 kts | 49° |
| 2026-05-05 21:36 | 51.52256 | -0.29859 | 4819 ft | 255 kts | 59° |
| 2026-05-05 21:37 | 51.52958 | -0.27197 | 5432 ft | 263 kts | 69° |
| 2026-05-05 21:37 | 51.53545 | -0.24396 | 5964 ft | 265 kts | 70° |
| 2026-05-05 21:37 | 51.54137 | -0.21576 | 6001 ft | 267 kts | 69° |
| 2026-05-05 21:37 | 51.55011 | -0.19002 | 6003 ft | 265 kts | 44° |
| 2026-05-05 21:38 | 51.56577 | -0.17509 | 6008 ft | 265 kts | 14° |
| 2026-05-05 21:38 | 51.58394 | -0.17336 | 6079 ft | 263 kts | 351° |
| 2026-05-05 21:38 | 51.60064 | -0.18409 | 6076 ft | 256 kts | 336° |
| 2026-05-05 21:38 | 51.61820 | -0.18902 | 6091 ft | 264 kts | 9° |
| 2026-05-05 21:39 | 51.62284 | -0.18736 | 6094 ft | 265 kts | 18° |
| 2026-05-05 21:39 | 51.63910 | -0.17474 | 6093 ft | 263 kts | 27° |
| 2026-05-05 21:39 | 51.65623 | -0.16251 | 6095 ft | 268 kts | 20° |
| 2026-05-05 21:39 | 51.67310 | -0.15068 | 6084 ft | 264 kts | 25° |
| 2026-05-05 21:40 | 51.68958 | -0.13879 | 6089 ft | 264 kts | 21° |
| 2026-05-05 21:40 | 51.70680 | -0.12867 | 6085 ft | 263 kts | 18° |
| 2026-05-05 21:40 | 51.72419 | -0.11975 | 6082 ft | 261 kts | 18° |
| 2026-05-05 21:40 | 51.73991 | -0.10624 | 6082 ft | 262 kts | 41° |
| 2026-05-05 21:41 | 51.75065 | -0.08215 | 6337 ft | 269 kts | 64° |
| 2026-05-05 21:41 | 51.75570 | -0.05289 | 7025 ft | 274 kts | 79° |
| 2026-05-05 21:41 | 51.75826 | -0.02224 | 7786 ft | 277 kts | 82° |
| 2026-05-05 21:41 | 51.76042 | 0.00883 | 8493 ft | 280 kts | 81° |
| 2026-05-05 21:42 | 51.76264 | 0.04029 | 9233 ft | 284 kts | 81° |
| 2026-05-05 21:42 | 51.76501 | 0.07221 | 9930 ft | 289 kts | 81° |
| 2026-05-05 21:42 | 51.76759 | 0.10496 | 10364 ft | 304 kts | 81° |
| 2026-05-05 21:42 | 51.77040 | 0.13976 | 10774 ft | 320 kts | 81° |
| 2026-05-05 21:43 | 51.77332 | 0.17595 | 11480 ft | 329 kts | 81° |
| 2026-05-05 21:43 | 51.77635 | 0.21287 | 12360 ft | 331 kts | 79° |
| 2026-05-05 21:43 | 51.78329 | 0.24869 | 13184 ft | 339 kts | 61° |
| 2026-05-05 21:43 | 51.79683 | 0.27977 | 14139 ft | 339 kts | 45° |
| 2026-05-05 21:44 | 51.81379 | 0.30672 | 14993 ft | 346 kts | 42° |
| 2026-05-05 21:44 | 51.83150 | 0.33377 | 15783 ft | 354 kts | 42° |
| 2026-05-05 21:44 | 51.84952 | 0.36126 | 16761 ft | 358 kts | 42° |
| 2026-05-05 21:44 | 51.86770 | 0.38921 | 17659 ft | 363 kts | 43° |
| 2026-05-05 21:45 | 51.88606 | 0.41769 | 18509 ft | 369 kts | 43° |
| 2026-05-05 21:45 | 51.90467 | 0.44675 | 19290 ft | 373 kts | 43° |
| 2026-05-05 21:45 | 51.92338 | 0.47610 | 20123 ft | 377 kts | 43° |
| 2026-05-05 21:45 | 51.94234 | 0.50595 | 20957 ft | 380 kts | 44° |
| 2026-05-05 21:46 | 51.96137 | 0.53595 | 21795 ft | 384 kts | 43° |
| 2026-05-05 21:46 | 51.98063 | 0.56635 | 22550 ft | 389 kts | 43° |
| 2026-05-05 21:46 | 52.00011 | 0.59713 | 23314 ft | 395 kts | 43° |
| 2026-05-05 21:46 | 52.01999 | 0.62809 | 23992 ft | 400 kts | 41° |
| 2026-05-05 21:47 | 52.04178 | 0.65659 | 24624 ft | 404 kts | 34° |
| 2026-05-05 21:47 | 52.06498 | 0.68310 | 25194 ft | 411 kts | 33° |
| 2026-05-05 21:47 | 52.08873 | 0.70971 | 25792 ft | 417 kts | 33° |
| 2026-05-05 21:47 | 52.09959 | 0.72186 | 26091 ft | 419 kts | 33° |
| 2026-05-05 21:48 | 52.11425 | 0.73831 | 26502 ft | 422 kts | 34° |
| 2026-05-05 21:48 | 52.13847 | 0.76564 | 27160 ft | 426 kts | 34° |
| 2026-05-05 21:48 | 52.16294 | 0.79346 | 27772 ft | 431 kts | 34° |
| 2026-05-05 21:49 | 52.18764 | 0.82168 | 28370 ft | 436 kts | 34° |
| 2026-05-05 21:49 | 52.20410 | 0.84057 | 28759 ft | 439 kts | 34° |
| 2026-05-05 21:49 | 52.22116 | 0.86016 | 29146 ft | 443 kts | 34° |
| 2026-05-05 21:50 | 52.24439 | 0.88691 | 29668 ft | 447 kts | 35° |
| 2026-05-05 21:50 | 52.26996 | 0.91635 | 30188 ft | 452 kts | 35° |
| 2026-05-05 21:50 | 52.30424 | 0.95586 | 30699 ft | 460 kts | 35° |
| 2026-05-05 21:51 | 52.32193 | 0.97628 | 30960 ft | 463 kts | 35° |
| 2026-05-05 21:51 | 52.34738 | 1.00570 | 31449 ft | 465 kts | 35° |
| 2026-05-05 21:51 | 52.37377 | 1.03629 | 32026 ft | 465 kts | 35° |
| 2026-05-05 21:51 | 52.40015 | 1.06695 | 32518 ft | 466 kts | 36° |
| 2026-05-05 21:52 | 52.45331 | 1.12892 | 33399 ft | 472 kts | 36° |
| 2026-05-05 21:52 | 52.48014 | 1.16026 | 33808 ft | 475 kts | 36° |
| 2026-05-05 21:52 | 52.50716 | 1.19188 | 34184 ft | 478 kts | 36° |
| 2026-05-05 21:53 | 52.53434 | 1.22373 | 34504 ft | 481 kts | 36° |
| 2026-05-05 21:53 | 52.56168 | 1.25581 | 34783 ft | 485 kts | 36° |
| 2026-05-05 21:53 | 52.58882 | 1.28770 | 35094 ft | 487 kts | 36° |
| 2026-05-05 21:53 | 52.61644 | 1.32020 | 35426 ft | 489 kts | 36° |
| 2026-05-05 21:54 | 52.64412 | 1.35282 | 35734 ft | 491 kts | 36° |
| 2026-05-05 21:54 | 52.67193 | 1.38566 | 36067 ft | 492 kts | 35° |
| 2026-05-05 21:54 | 52.69973 | 1.41854 | 36449 ft | 491 kts | 35° |
| 2026-05-05 21:54 | 52.72744 | 1.45136 | 36892 ft | 490 kts | 35° |
| 2026-05-05 21:55 | 52.75508 | 1.48416 | 37327 ft | 488 kts | 35° |
| 2026-05-05 21:55 | 52.78269 | 1.51696 | 37610 ft | 490 kts | 35° |
| 2026-05-05 21:55 | 52.81039 | 1.54994 | 37933 ft | 491 kts | 35° |
| 2026-05-05 21:55 | 52.83803 | 1.58289 | 38335 ft | 489 kts | 35° |
| 2026-05-05 21:56 | 52.86556 | 1.61576 | 38723 ft | 488 kts | 34° |
| 2026-05-05 21:56 | 52.89303 | 1.64862 | 38995 ft | 488 kts | 35° |
| 2026-05-05 21:56 | 52.92058 | 1.68163 | 39231 ft | 489 kts | 35° |
| 2026-05-05 21:56 | 52.94812 | 1.71466 | 39477 ft | 489 kts | 35° |
| 2026-05-05 21:57 | 52.97568 | 1.74779 | 39718 ft | 489 kts | 35° |
| 2026-05-05 21:57 | 53.00312 | 1.78082 | 39980 ft | 489 kts | 35° |
| 2026-05-05 21:57 | 53.03067 | 1.81402 | 40170 ft | 490 kts | 35° |
| 2026-05-05 21:57 | 53.05829 | 1.84738 | 40385 ft | 491 kts | 35° |
| 2026-05-05 21:58 | 53.08586 | 1.88074 | 40637 ft | 490 kts | 35° |
| 2026-05-05 21:58 | 53.11344 | 1.91414 | 40864 ft | 490 kts | 35° |
| 2026-05-05 21:58 | 53.14108 | 1.94769 | 40917 ft | 494 kts | 35° |
| 2026-05-05 21:59 | 53.19543 | 2.01382 | 40975 ft | 492 kts | 35° |
| 2026-05-05 21:59 | 53.25050 | 2.08101 | 40980 ft | 490 kts | 35° |
| 2026-05-05 22:00 | 53.30595 | 2.14586 | 40983 ft | 490 kts | 33° |
| 2026-05-05 22:00 | 53.36273 | 2.20921 | 40987 ft | 491 kts | 33° |
| 2026-05-05 22:01 | 53.41940 | 2.27333 | 40984 ft | 492 kts | 33° |
| 2026-05-05 22:01 | 53.47606 | 2.33814 | 40980 ft | 493 kts | 33° |
| 2026-05-05 22:02 | 53.53175 | 2.40519 | 40974 ft | 493 kts | 36° |
| 2026-05-05 22:02 | 53.58641 | 2.47503 | 40975 ft | 493 kts | 36° |
| 2026-05-05 22:03 | 53.64103 | 2.54499 | 40974 ft | 493 kts | 36° |
| 2026-05-05 22:03 | 53.69567 | 2.61453 | 40966 ft | 492 kts | 36° |
| 2026-05-05 22:04 | 53.75035 | 2.68404 | 40978 ft | 492 kts | 36° |
| 2026-05-05 22:04 | 53.80509 | 2.75382 | 40971 ft | 493 kts | 36° |
| 2026-05-05 22:05 | 53.85979 | 2.82382 | 40971 ft | 493 kts | 36° |
| 2026-05-05 22:05 | 53.91449 | 2.89409 | 40971 ft | 494 kts | 36° |
| 2026-05-05 22:06 | 53.96916 | 2.96455 | 40988 ft | 494 kts | 36° |
| 2026-05-05 22:06 | 54.02294 | 3.03416 | 40984 ft | 495 kts | 36° |
| 2026-05-05 22:07 | 54.07769 | 3.10517 | 40978 ft | 495 kts | 36° |
| 2026-05-05 22:07 | 54.13244 | 3.17642 | 40967 ft | 495 kts | 36° |
| 2026-05-05 22:08 | 54.18712 | 3.24786 | 40970 ft | 495 kts | 36° |
| 2026-05-05 22:08 | 54.24180 | 3.31953 | 40983 ft | 496 kts | 36° |
| 2026-05-05 22:09 | 54.29656 | 3.39158 | 40973 ft | 497 kts | 36° |
| 2026-05-05 22:09 | 54.35128 | 3.46380 | 40974 ft | 497 kts | 36° |
| 2026-05-05 22:10 | 54.40600 | 3.53627 | 40976 ft | 497 kts | 36° |
| 2026-05-05 22:10 | 54.46065 | 3.60892 | 40990 ft | 497 kts | 36° |
| 2026-05-05 22:11 | 54.51537 | 3.68190 | 40977 ft | 497 kts | 36° |
| 2026-05-05 22:11 | 54.57000 | 3.75502 | 40978 ft | 498 kts | 36° |
| 2026-05-05 22:12 | 54.62428 | 3.82791 | 40984 ft | 498 kts | 37° |
| 2026-05-05 22:12 | 54.67888 | 3.90151 | 40969 ft | 498 kts | 37° |
| 2026-05-05 22:13 | 54.73347 | 3.97535 | 40976 ft | 499 kts | 37° |
| 2026-05-05 22:13 | 54.78724 | 4.04834 | 40983 ft | 499 kts | 37° |
| 2026-05-05 22:14 | 54.84181 | 4.12265 | 40979 ft | 499 kts | 37° |
| 2026-05-05 22:14 | 54.89806 | 4.19295 | 40988 ft | 498 kts | 31° |
| 2026-05-05 22:15 | 54.95645 | 4.25766 | 40998 ft | 498 kts | 30° |
| 2026-05-05 22:15 | 55.01487 | 4.32211 | 40990 ft | 498 kts | 31° |
| 2026-05-05 22:16 | 55.07326 | 4.38751 | 40985 ft | 499 kts | 31° |
| 2026-05-05 22:16 | 55.13144 | 4.45332 | 40995 ft | 499 kts | 31° |
| 2026-05-05 22:17 | 55.18961 | 4.51939 | 41017 ft | 499 kts | 31° |
| 2026-05-05 22:17 | 55.24783 | 4.58571 | 41004 ft | 499 kts | 31° |
| 2026-05-05 22:18 | 55.30601 | 4.65219 | 40996 ft | 499 kts | 31° |
| 2026-05-05 22:18 | 55.36411 | 4.71882 | 40996 ft | 499 kts | 31° |
| 2026-05-05 22:19 | 55.42221 | 4.78568 | 41001 ft | 499 kts | 31° |
| 2026-05-05 22:19 | 55.48028 | 4.85276 | 41010 ft | 499 kts | 31° |
| 2026-05-05 22:20 | 55.53791 | 4.91957 | 40999 ft | 499 kts | 31° |
| 2026-05-05 22:20 | 55.59590 | 4.98701 | 41008 ft | 499 kts | 31° |
| 2026-05-05 22:21 | 55.65302 | 5.05370 | 41008 ft | 499 kts | 31° |
| 2026-05-05 22:21 | 55.71086 | 5.12152 | 41022 ft | 499 kts | 31° |
| 2026-05-05 22:22 | 55.76885 | 5.18975 | 41010 ft | 500 kts | 31° |
| 2026-05-05 22:22 | 55.82677 | 5.25814 | 41010 ft | 500 kts | 31° |
| 2026-05-05 22:23 | 55.88464 | 5.32675 | 41020 ft | 500 kts | 31° |
| 2026-05-05 22:23 | 55.94254 | 5.39559 | 41019 ft | 500 kts | 31° |
| 2026-05-05 22:24 | 56.00027 | 5.46444 | 41017 ft | 500 kts | 31° |
| 2026-05-05 22:24 | 56.05811 | 5.53363 | 41016 ft | 500 kts | 31° |
| 2026-05-05 22:25 | 56.11588 | 5.60300 | 41018 ft | 500 kts | 31° |
| 2026-05-05 22:25 | 56.17358 | 5.67257 | 41032 ft | 500 kts | 31° |
| 2026-05-05 22:26 | 56.23133 | 5.74246 | 41011 ft | 500 kts | 31° |
| 2026-05-05 22:26 | 56.28903 | 5.81252 | 41023 ft | 501 kts | 31° |
| 2026-05-05 22:27 | 56.34673 | 5.88286 | 41023 ft | 501 kts | 32° |
| 2026-05-05 22:27 | 56.40441 | 5.95345 | 41024 ft | 501 kts | 32° |
| 2026-05-05 22:28 | 56.46112 | 6.02309 | 41037 ft | 502 kts | 32° |
| 2026-05-05 22:28 | 56.51879 | 6.09418 | 41029 ft | 502 kts | 32° |
| 2026-05-05 22:29 | 56.57649 | 6.16557 | 41026 ft | 502 kts | 32° |
| 2026-05-05 22:29 | 56.63409 | 6.23711 | 41024 ft | 502 kts | 32° |
| 2026-05-05 22:30 | 56.69168 | 6.30891 | 41035 ft | 502 kts | 32° |
| 2026-05-05 22:30 | 56.74920 | 6.38089 | 41024 ft | 502 kts | 32° |
| 2026-05-05 22:31 | 56.80672 | 6.45315 | 41008 ft | 502 kts | 32° |
| 2026-05-05 22:31 | 56.86421 | 6.52563 | 41023 ft | 502 kts | 32° |
| 2026-05-05 22:32 | 56.92165 | 6.59835 | 41016 ft | 502 kts | 32° |
| 2026-05-05 22:32 | 56.97871 | 6.67083 | 41012 ft | 503 kts | 32° |
| 2026-05-05 22:33 | 57.03642 | 6.74303 | 41013 ft | 502 kts | 30° |
| 2026-05-05 22:33 | 57.09512 | 6.81285 | 41014 ft | 502 kts | 30° |
| 2026-05-05 22:34 | 57.15387 | 6.88253 | 41009 ft | 502 kts | 30° |
| 2026-05-05 22:34 | 57.21248 | 6.95286 | 41026 ft | 503 kts | 30° |
| 2026-05-05 22:35 | 57.27004 | 7.02254 | 41013 ft | 503 kts | 30° |
| 2026-05-05 22:35 | 57.32853 | 7.09370 | 41007 ft | 503 kts | 30° |
| 2026-05-05 22:36 | 57.38696 | 7.16503 | 41007 ft | 503 kts | 30° |
| 2026-05-05 22:36 | 57.44534 | 7.23655 | 41021 ft | 503 kts | 30° |
| 2026-05-05 22:37 | 57.49385 | 7.29618 | 41011 ft | 504 kts | 30° |
| 2026-05-05 22:37 | 57.56217 | 7.38048 | 41001 ft | 504 kts | 31° |
| 2026-05-05 22:38 | 57.61072 | 7.44064 | 40997 ft | 504 kts | 31° |
| 2026-05-05 22:38 | 57.66912 | 7.51325 | 40992 ft | 504 kts | 31° |
| 2026-05-05 22:39 | 57.72748 | 7.58611 | 41002 ft | 505 kts | 31° |
| 2026-05-05 22:39 | 57.78593 | 7.65937 | 40994 ft | 505 kts | 31° |
| 2026-05-05 22:40 | 57.84433 | 7.73285 | 40992 ft | 505 kts | 31° |
| 2026-05-05 22:40 | 57.90268 | 7.80657 | 40991 ft | 505 kts | 31° |
| 2026-05-05 22:41 | 57.96099 | 7.88052 | 41019 ft | 505 kts | 31° |
| 2026-05-05 22:41 | 58.01881 | 7.95415 | 40992 ft | 506 kts | 31° |
| 2026-05-05 22:42 | 58.07617 | 8.02748 | 40998 ft | 506 kts | 31° |
| 2026-05-05 22:42 | 58.13442 | 8.10224 | 41000 ft | 506 kts | 31° |
| 2026-05-05 22:43 | 58.19265 | 8.17728 | 41003 ft | 507 kts | 31° |
| 2026-05-05 22:43 | 58.25094 | 8.25271 | 40999 ft | 507 kts | 31° |
| 2026-05-05 22:44 | 58.30918 | 8.32836 | 40994 ft | 507 kts | 31° |
| 2026-05-05 22:44 | 58.36736 | 8.40426 | 40991 ft | 507 kts | 31° |
| 2026-05-05 22:45 | 58.42541 | 8.48030 | 40991 ft | 506 kts | 31° |
| 2026-05-05 22:45 | 58.48342 | 8.55659 | 40987 ft | 506 kts | 31° |
| 2026-05-05 22:46 | 58.54129 | 8.63301 | 40989 ft | 506 kts | 31° |
| 2026-05-05 22:46 | 58.59918 | 8.70977 | 40989 ft | 506 kts | 31° |
| 2026-05-05 22:47 | 58.65699 | 8.78673 | 40994 ft | 506 kts | 31° |
| 2026-05-05 22:47 | 58.71483 | 8.86405 | 40971 ft | 506 kts | 31° |
| 2026-05-05 22:48 | 58.77264 | 8.94168 | 40994 ft | 507 kts | 31° |
| 2026-05-05 22:48 | 58.82956 | 9.01836 | 40980 ft | 508 kts | 31° |
| 2026-05-05 22:49 | 58.88633 | 9.10000 | 40974 ft | 510 kts | 35° |
| 2026-05-05 22:49 | 58.94154 | 9.18587 | 40979 ft | 510 kts | 36° |
| 2026-05-05 22:50 | 58.99673 | 9.27210 | 41009 ft | 509 kts | 35° |
| 2026-05-05 22:50 | 59.05203 | 9.35791 | 40989 ft | 510 kts | 35° |
| 2026-05-05 22:51 | 59.10741 | 9.44395 | 40976 ft | 510 kts | 35° |
| 2026-05-05 22:51 | 59.16272 | 9.53031 | 40976 ft | 509 kts | 36° |
| 2026-05-05 22:52 | 59.21907 | 9.61180 | 40973 ft | 506 kts | 30° |
| 2026-05-05 22:52 | 59.27833 | 9.68621 | 40980 ft | 506 kts | 29° |
| 2026-05-05 22:53 | 59.33704 | 9.76205 | 40979 ft | 508 kts | 32° |
| 2026-05-05 22:53 | 59.39266 | 9.84854 | 40978 ft | 510 kts | 37° |
| 2026-05-05 22:54 | 59.44691 | 9.93862 | 40969 ft | 510 kts | 37° |
| 2026-05-05 22:54 | 59.50069 | 10.02606 | 40975 ft | 510 kts | 36° |
| 2026-05-05 22:55 | 59.55576 | 10.11460 | 40985 ft | 511 kts | 36° |
| 2026-05-05 22:55 | 59.61065 | 10.20327 | 40977 ft | 511 kts | 36° |
| 2026-05-05 22:56 | 59.66580 | 10.29178 | 40959 ft | 507 kts | 30° |
| 2026-05-05 22:56 | 59.69661 | 10.32341 | 40962 ft | 489 kts | 13° |
| 2026-05-05 22:56 | 59.72892 | 10.33621 | 40942 ft | 463 kts | 356° |
| 2026-05-05 22:56 | 59.76008 | 10.33187 | 40960 ft | 438 kts | 343° |
| 2026-05-05 22:57 | 59.78911 | 10.31692 | 40971 ft | 428 kts | 335° |
| 2026-05-05 22:57 | 59.84031 | 10.26287 | 40969 ft | 410 kts | 323° |
| 2026-05-05 22:57 | 59.86671 | 10.24008 | 40981 ft | 422 kts | 339° |
| 2026-05-05 22:58 | 59.89536 | 10.22570 | 40961 ft | 426 kts | 339° |
| 2026-05-05 22:58 | 59.95475 | 10.21422 | 40964 ft | 448 kts | 9° |
| 2026-05-05 22:58 | 59.98370 | 10.23871 | 40976 ft | 462 kts | 32° |
| 2026-05-05 22:59 | 60.00695 | 10.28344 | 40979 ft | 473 kts | 54° |
| 2026-05-05 22:59 | 60.02114 | 10.34279 | 40983 ft | 478 kts | 77° |
| 2026-05-05 22:59 | 60.02414 | 10.40872 | 40975 ft | 477 kts | 99° |
| 2026-05-05 22:59 | 60.01648 | 10.47283 | 40981 ft | 475 kts | 114° |
| 2026-05-05 23:00 | 59.99319 | 10.59719 | 40964 ft | 483 kts | 108° |
| 2026-05-05 23:00 | 59.97929 | 10.72835 | 40940 ft | 479 kts | 101° |
| 2026-05-05 23:01 | 59.97436 | 10.85915 | 40938 ft | 474 kts | 76° |
| 2026-05-05 23:01 | 59.99420 | 10.98166 | 40909 ft | 447 kts | 58° |
| 2026-05-05 23:02 | 60.01172 | 11.02812 | 40953 ft | 430 kts | 35° |
| 2026-05-05 23:02 | 60.03684 | 11.05871 | 40787 ft | 422 kts | 11° |
| 2026-05-05 23:02 | 60.06486 | 11.06649 | 40757 ft | 395 kts | 345° |
| 2026-05-05 23:02 | 60.09099 | 11.05453 | 40827 ft | 384 kts | 338° |
| 2026-05-05 23:03 | 60.11757 | 11.04464 | 40886 ft | 396 kts | 353° |
| 2026-05-05 23:03 | 60.14510 | 11.04914 | 40901 ft | 410 kts | 6° |
| 2026-05-05 23:03 | 60.20092 | 11.08061 | 40947 ft | 423 kts | 12° |
| 2026-05-05 23:04 | 60.25788 | 11.11621 | 40957 ft | 434 kts | 11° |
| 2026-05-05 23:04 | 60.31653 | 11.15134 | 40968 ft | 446 kts | 11° |
| 2026-05-05 23:05 | 60.37737 | 11.18734 | 40960 ft | 459 kts | 11° |
| 2026-05-05 23:05 | 60.43898 | 11.22393 | 40963 ft | 471 kts | 11° |
| 2026-05-05 23:06 | 60.50257 | 11.26191 | 40969 ft | 483 kts | 12° |
| 2026-05-05 23:06 | 60.56784 | 11.29581 | 40985 ft | 482 kts | 357° |
| 2026-05-05 23:07 | 60.60095 | 11.29026 | 40973 ft | 474 kts | 340° |
| 2026-05-05 23:07 | 60.63140 | 11.26647 | 40970 ft | 467 kts | 326° |
| 2026-05-05 23:07 | 60.65764 | 11.22847 | 40955 ft | 461 kts | 312° |
| 2026-05-05 23:07 | 60.67834 | 11.17923 | 40961 ft | 455 kts | 299° |
| 2026-05-05 23:08 | 60.69227 | 11.12188 | 40966 ft | 451 kts | 285° |
| 2026-05-05 23:08 | 60.69869 | 11.05963 | 40960 ft | 448 kts | 272° |
| 2026-05-05 23:08 | 60.69726 | 10.99632 | 40960 ft | 447 kts | 259° |
| 2026-05-05 23:08 | 60.68822 | 10.93589 | 40978 ft | 447 kts | 246° |
| 2026-05-05 23:09 | 60.67227 | 10.88197 | 40876 ft | 443 kts | 233° |
| 2026-05-05 23:09 | 60.65050 | 10.83782 | 40479 ft | 443 kts | 219° |
| 2026-05-05 23:09 | 60.62384 | 10.80545 | 39834 ft | 452 kts | 208° |
| 2026-05-05 23:09 | 60.59392 | 10.78460 | 39240 ft | 459 kts | 197° |
| 2026-05-05 23:10 | 60.56227 | 10.77619 | 38933 ft | 460 kts | 187° |
| 2026-05-05 23:10 | 60.53039 | 10.77594 | 38642 ft | 454 kts | 184° |
| 2026-05-05 23:10 | 60.49920 | 10.77805 | 38021 ft | 444 kts | 184° |
| 2026-05-05 23:10 | 60.46846 | 10.78075 | 37111 ft | 440 kts | 184° |
| 2026-05-05 23:11 | 60.43802 | 10.78320 | 36262 ft | 436 kts | 185° |
| 2026-05-05 23:11 | 60.42078 | 10.78440 | 35815 ft | 433 kts | 186° |
| 2026-05-05 23:11 | 60.41487 | 10.78478 | 35663 ft | 431 kts | 186° |
| 2026-05-05 23:12 | 60.40789 | 10.78520 | 35500 ft | 430 kts | 186° |
| 2026-05-05 23:12 | 60.38989 | 10.78621 | 35079 ft | 425 kts | 186° |
| 2026-05-05 23:12 | 60.36053 | 10.78764 | 34413 ft | 418 kts | 187° |
| 2026-05-05 23:12 | 60.33170 | 10.78885 | 33783 ft | 411 kts | 188° |
| 2026-05-05 23:13 | 60.30346 | 10.79000 | 32994 ft | 401 kts | 189° |
| 2026-05-05 23:13 | 60.27604 | 10.79115 | 32426 ft | 388 kts | 189° |
| 2026-05-05 23:13 | 60.24937 | 10.79220 | 31675 ft | 381 kts | 190° |
| 2026-05-05 23:13 | 60.22299 | 10.79318 | 30874 ft | 376 kts | 190° |
| 2026-05-05 23:14 | 60.19699 | 10.79410 | 30113 ft | 371 kts | 191° |
| 2026-05-05 23:14 | 60.17143 | 10.79504 | 29250 ft | 365 kts | 191° |
| 2026-05-05 23:14 | 60.14626 | 10.79600 | 28384 ft | 360 kts | 191° |
| 2026-05-05 23:14 | 60.12133 | 10.79695 | 27519 ft | 355 kts | 191° |
| 2026-05-05 23:15 | 60.09684 | 10.79790 | 26829 ft | 347 kts | 192° |
| 2026-05-05 23:15 | 60.07330 | 10.79892 | 26444 ft | 331 kts | 192° |
| 2026-05-05 23:15 | 60.05080 | 10.79985 | 26064 ft | 316 kts | 193° |
| 2026-05-05 23:15 | 60.02921 | 10.80065 | 25643 ft | 305 kts | 193° |
| 2026-05-05 23:16 | 60.00822 | 10.80138 | 25072 ft | 299 kts | 193° |
| 2026-05-05 23:16 | 59.98751 | 10.80210 | 24473 ft | 297 kts | 193° |
| 2026-05-05 23:16 | 59.96710 | 10.80185 | 23840 ft | 286 kts | 202° |
| 2026-05-05 23:16 | 59.94883 | 10.79140 | 23189 ft | 265 kts | 217° |
| 2026-05-05 23:17 | 59.93322 | 10.77354 | 22473 ft | 253 kts | 226° |
| 2026-05-05 23:17 | 59.92001 | 10.75137 | 21752 ft | 245 kts | 234° |
| 2026-05-05 23:17 | 59.90931 | 10.72563 | 21039 ft | 238 kts | 243° |
| 2026-05-05 23:17 | 59.90162 | 10.69694 | 20355 ft | 233 kts | 253° |
| 2026-05-05 23:18 | 59.89738 | 10.66618 | 19686 ft | 229 kts | 264° |
| 2026-05-05 23:18 | 59.89669 | 10.63502 | 19056 ft | 228 kts | 274° |
| 2026-05-05 23:18 | 59.89945 | 10.60353 | 18434 ft | 229 kts | 284° |
| 2026-05-05 23:18 | 59.90532 | 10.57431 | 17674 ft | 233 kts | 294° |
| 2026-05-05 23:19 | 59.91441 | 10.54715 | 16922 ft | 239 kts | 305° |
| 2026-05-05 23:19 | 59.92670 | 10.52431 | 16210 ft | 247 kts | 324° |
| 2026-05-05 23:19 | 59.94361 | 10.51676 | 15662 ft | 261 kts | 0° |
| 2026-05-05 23:19 | 59.96113 | 10.52719 | 15259 ft | 258 kts | 6° |
| 2026-05-05 23:20 | 59.97822 | 10.53007 | 14821 ft | 238 kts | 343° |
| 2026-05-05 23:20 | 59.99271 | 10.51785 | 14276 ft | 222 kts | 313° |
| 2026-05-05 23:20 | 60.00123 | 10.49303 | 13648 ft | 218 kts | 290° |
| 2026-05-05 23:20 | 60.00602 | 10.46417 | 13026 ft | 219 kts | 285° |
| 2026-05-05 23:21 | 60.00958 | 10.43472 | 12469 ft | 217 kts | 272° |
| 2026-05-05 23:21 | 60.00630 | 10.40561 | 11865 ft | 220 kts | 240° |
| 2026-05-05 23:21 | 59.99510 | 10.38469 | 11280 ft | 227 kts | 208° |
| 2026-05-05 23:21 | 59.97944 | 10.37920 | 10739 ft | 235 kts | 175° |
| 2026-05-05 23:22 | 59.96426 | 10.39123 | 10213 ft | 239 kts | 148° |
| 2026-05-05 23:22 | 59.94981 | 10.40606 | 9687 ft | 231 kts | 172° |
| 2026-05-05 23:22 | 59.93398 | 10.40860 | 9175 ft | 227 kts | 181° |
| 2026-05-05 23:22 | 59.91831 | 10.40939 | 8670 ft | 225 kts | 181° |
| 2026-05-05 23:23 | 59.90271 | 10.40710 | 8036 ft | 225 kts | 204° |
| 2026-05-05 23:23 | 59.89109 | 10.38723 | 7513 ft | 225 kts | 245° |
| 2026-05-05 23:23 | 59.88903 | 10.35671 | 7053 ft | 229 kts | 283° |
| 2026-05-05 23:23 | 59.89539 | 10.32762 | 6701 ft | 232 kts | 301° |
| 2026-05-05 23:24 | 59.90615 | 10.30380 | 6387 ft | 234 kts | 325° |
| 2026-05-05 23:24 | 59.92137 | 10.29334 | 6056 ft | 236 kts | 358° |
| 2026-05-05 23:24 | 59.93709 | 10.30144 | 5721 ft | 237 kts | 32° |
| 2026-05-05 23:24 | 59.94783 | 10.32585 | 5443 ft | 237 kts | 68° |
| 2026-05-05 23:25 | 59.95130 | 10.35786 | 5184 ft | 235 kts | 83° |
| 2026-05-05 23:25 | 59.95302 | 10.38992 | 5113 ft | 232 kts | 83° |
| 2026-05-05 23:25 | 59.95462 | 10.42202 | 5066 ft | 235 kts | 83° |
| 2026-05-05 23:25 | 59.95624 | 10.45471 | 5065 ft | 237 kts | 83° |
| 2026-05-05 23:26 | 59.95731 | 10.47644 | 5066 ft | 237 kts | 83° |
| 2026-05-05 23:26 | 59.95945 | 10.51971 | 5056 ft | 236 kts | 84° |
| 2026-05-05 23:26 | 59.96109 | 10.55227 | 5051 ft | 236 kts | 83° |
| 2026-05-05 23:26 | 59.96272 | 10.58477 | 5057 ft | 235 kts | 83° |
| 2026-05-05 23:27 | 59.96435 | 10.61728 | 5059 ft | 235 kts | 83° |
| 2026-05-05 23:27 | 59.96600 | 10.64979 | 5051 ft | 236 kts | 84° |
| 2026-05-05 23:27 | 59.96712 | 10.67196 | 5053 ft | 237 kts | 84° |
| 2026-05-05 23:27 | 59.96878 | 10.70478 | 5056 ft | 239 kts | 84° |
| 2026-05-05 23:28 | 59.97040 | 10.73740 | 5051 ft | 240 kts | 84° |
| 2026-05-05 23:28 | 59.97206 | 10.77082 | 5052 ft | 240 kts | 84° |
| 2026-05-05 23:28 | 59.97372 | 10.80358 | 5054 ft | 239 kts | 82° |
| 2026-05-05 23:28 | 59.97715 | 10.83650 | 5045 ft | 239 kts | 75° |
| 2026-05-05 23:29 | 59.98139 | 10.86858 | 4803 ft | 244 kts | 75° |
| 2026-05-05 23:29 | 59.98551 | 10.90026 | 4668 ft | 227 kts | 75° |
| 2026-05-05 23:29 | 59.98926 | 10.92967 | 4514 ft | 210 kts | 74° |
| 2026-05-05 23:29 | 59.99585 | 10.95372 | 4351 ft | 190 kts | 40° |
| 2026-05-05 23:30 | 60.00706 | 10.96554 | 4151 ft | 180 kts | 20° |
| 2026-05-05 23:30 | 60.01859 | 10.97530 | 4089 ft | 181 kts | 21° |
| 2026-05-05 23:30 | 60.03041 | 10.98422 | 3737 ft | 178 kts | 17° |
| 2026-05-05 23:30 | 60.04195 | 10.99145 | 3553 ft | 171 kts | 15° |
| 2026-05-05 23:31 | 60.05345 | 10.99818 | 3323 ft | 173 kts | 15° |
| 2026-05-05 23:31 | 60.06497 | 11.00481 | 3135 ft | 170 kts | 14° |
| 2026-05-05 23:31 | 60.07638 | 11.01133 | 3024 ft | 173 kts | 14° |
| 2026-05-05 23:31 | 60.08796 | 11.01796 | 2768 ft | 171 kts | 14° |
| 2026-05-05 23:32 | 60.09883 | 11.02420 | 2541 ft | 153 kts | 14° |
| 2026-05-05 23:32 | 60.10847 | 11.02974 | 2312 ft | 135 kts | 13° |
| 2026-05-05 23:32 | 60.11697 | 11.03462 | 2142 ft | 121 kts | 13° |
| 2026-05-05 23:32 | 60.12487 | 11.03917 | 2009 ft | 116 kts | 13° |
| 2026-05-05 23:33 | 60.13293 | 11.04375 | 1850 ft | 126 kts | 13° |
| 2026-05-05 23:33 | 60.14165 | 11.04875 | 1662 ft | 135 kts | 13° |
| 2026-05-05 23:33 | 60.15103 | 11.05416 | 1437 ft | 144 kts | 15° |
| 2026-05-05 23:33 | 60.16024 | 11.05946 | 1194 ft | 132 kts | 15° |
| 2026-05-05 23:34 | 60.16878 | 11.06435 | 1043 ft | 125 kts | 16° |
| 2026-05-05 23:34 | 60.17721 | 11.06923 | 880 ft | 127 kts | 16° |
| 2026-05-05 23:34 | 60.18553 | 11.07406 | 724 ft | 122 kts | 16° |
| 2026-05-05 23:34 | 60.19295 | 11.07832 | 678 ft | 95 kts | 16° |
| 2026-05-05 23:35 | 60.19782 | 11.08110 | 681 ft | 46 kts | 16° |
| 2026-05-05 23:35 | 60.20060 | 11.08278 | 685 ft | 26 kts | 20° |
| 2026-05-05 23:35 | 60.20210 | 11.08438 | 679 ft | 16 kts | 41° |
| 2026-05-05 23:35 | 60.20249 | 11.08573 | 683 ft | 9 kts | 83° |
| 2026-05-05 23:36 | 60.20239 | 11.08695 | 684 ft | 9 kts | 111° |
| 2026-05-05 23:36 | 60.20217 | 11.08826 | 684 ft | 9 kts | 109° |
| 2026-05-05 23:36 | 60.20168 | 11.08887 | 685 ft | 9 kts | 179° |
| 2026-05-05 23:36 | 60.20108 | 11.08862 | 681 ft | 9 kts | 195° |
| 2026-05-05 23:37 | 60.20046 | 11.08827 | 679 ft | 9 kts | 196° |
| 2026-05-05 23:37 | 60.20008 | 11.08804 | 680 ft | 1 kts | 196° |
| 2026-05-05 23:37 | 60.19999 | 11.08799 | 680 ft | 1 kts | 196° |
| 2026-05-05 23:37 | 60.19990 | 11.08794 | 679 ft | 1 kts | 196° |
| 2026-05-05 23:38 | 60.19981 | 11.08788 | 679 ft | 1 kts | 196° |
| 2026-05-05 23:38 | 60.19972 | 11.08783 | 678 ft | 1 kts | 195° |
| 2026-05-05 23:38 | 60.19963 | 11.08778 | 678 ft | 1 kts | 195° |
| 2026-05-05 23:38 | 60.19934 | 11.08761 | 679 ft | 7 kts | 196° |
| 2026-05-05 23:39 | 60.19880 | 11.08736 | 682 ft | 9 kts | 180° |
| 2026-05-05 23:39 | 60.19839 | 11.08818 | 682 ft | 9 kts | 112° |
| 2026-05-05 23:39 | 60.19820 | 11.08936 | 683 ft | 9 kts | 106° |
| 2026-05-05 23:39 | 60.19804 | 11.09054 | 690 ft | 9 kts | 106° |
| 2026-05-05 23:40 | 60.19788 | 11.09166 | 688 ft | 9 kts | 105° |
| 2026-05-05 23:40 | 60.19772 | 11.09280 | 694 ft | 8 kts | 105° |
| 2026-05-05 23:40 | 60.19756 | 11.09392 | 691 ft | 8 kts | 105° |
| 2026-05-05 23:40 | 60.19740 | 11.09503 | 691 ft | 8 kts | 106° |
| 2026-05-05 23:41 | 60.19737 | 11.09614 | 692 ft | 8 kts | 60° |
| 2026-05-05 23:41 | 60.19788 | 11.09660 | 691 ft | 8 kts | 17° |
| 2026-05-05 23:41 | 60.19840 | 11.09692 | 689 ft | 8 kts | 16° |
| 2026-05-05 23:41 | 60.19889 | 11.09719 | 688 ft | 7 kts | 15° |
| 2026-05-05 23:42 | 60.19936 | 11.09747 | 690 ft | 7 kts | 17° |
| 2026-05-05 23:42 | 60.19978 | 11.09789 | 689 ft | 7 kts | 45° |
| 2026-05-05 23:42 | 60.19994 | 11.09874 | 690 ft | 6 kts | 82° |
| 2026-05-05 23:42 | 60.20017 | 11.09940 | 688 ft | 6 kts | 36° |
| 2026-05-05 23:43 | 60.20037 | 11.10002 | 688 ft | 5 kts | 82° |
| 2026-05-05 23:43 | 60.20034 | 11.10075 | 691 ft | 5 kts | 99° |
| 2026-05-05 23:43 | 60.20027 | 11.10138 | 692 ft | 4 kts | 102° |
| 2026-05-05 23:43 | 60.20019 | 11.10195 | 696 ft | 4 kts | 106° |
| 2026-05-05 23:44 | 60.20010 | 11.10252 | 687 ft | 4 kts | 106° |
| 2026-05-05 23:44 | 60.20000 | 11.10324 | 690 ft | 8 kts | 105° |
| 2026-05-05 23:44 | 60.19979 | 11.10470 | 688 ft | 14 kts | 106° |
| 2026-05-05 23:44 | 60.19931 | 11.10580 | 691 ft | 12 kts | 169° |
| 2026-05-05 23:45 | 60.19834 | 11.10545 | 688 ft | 14 kts | 197° |
| 2026-05-05 23:45 | 60.19755 | 11.10530 | 693 ft | 8 kts | 147° |
| 2026-05-05 23:45 | 60.19703 | 11.10605 | 694 ft | 12 kts | 176° |
| 2026-05-05 23:45 | 60.19633 | 11.10577 | 686 ft | 10 kts | 196° |
| 2026-05-05 23:46 | 60.19580 | 11.10634 | 688 ft | 11 kts | 109° |
| 2026-05-05 23:46 | 60.19545 | 11.10786 | 686 ft | 13 kts | 140° |
| 2026-05-05 23:46 | 60.19477 | 11.10831 | 686 ft | 6 kts | 118° |
| 2026-05-05 23:46 | 60.19462 | 11.10931 | 688 ft | 9 kts | 106° |
| 2026-05-05 23:47 | 60.19441 | 11.11069 | 694 ft | 12 kts | 106° |
| 2026-05-05 23:47 | 60.19415 | 11.11210 | 686 ft | 10 kts | 132° |
| 2026-05-05 23:47 | 60.19339 | 11.11233 | 689 ft | 13 kts | 192° |
| 2026-05-05 23:47 | 60.19246 | 11.11180 | 690 ft | 15 kts | 196° |
| 2026-05-05 23:48 | 60.19184 | 11.11095 | 690 ft | 10 kts | 249° |
| 2026-05-05 23:48 | 60.19190 | 11.10953 | 691 ft | 10 kts | 283° |
| 2026-05-05 23:48 | 60.19206 | 11.10825 | 688 ft | 9 kts | 285° |
| 2026-05-05 23:48 | 60.19232 | 11.10720 | 688 ft | 8 kts | 317° |
| 2026-05-05 23:49 | 60.19254 | 11.10696 | 691 ft | 1 kts | 336° |
| 2026-05-05 23:49 | 60.19259 | 11.10691 | 690 ft | 1 kts | 338° |
| 2026-05-05 23:49 | 60.19263 | 11.10688 | 687 ft | 1 kts | 338° |
| 2026-05-05 23:49 | 60.19267 | 11.10685 | 687 ft | 1 kts | 338° |
| 2026-05-05 23:50 | 60.19270 | 11.10683 | 688 ft | 0 kts | 338° |
| 2026-05-05 23:50 | 60.19271 | 11.10682 | 688 ft | 0 kts | 338° |
| 2026-05-05 23:50 | 60.19280 | 11.10675 | 688 ft | 1 kts | 338° |
| 2026-05-05 23:50 | 60.19281 | 11.10674 | 688 ft | 0 kts | 338° |